Time;durP1;ratioP1;P1;durP2;ratioP2;P2;SDS_P1;SDS_P2;PMS_P1;PMS_P2;Temp;Humidity;BMP_temperature;BMP_pressure;BME280_temperature;BME280_humidity;BME280_pressure;Samples;Min_cycle;Max_cycle;Signal;HPM_P1;HPM_P2
2023/07/23 00:00:47;;;;;;;;;;;;;;;26.00;66.33;96966.91;624722;227;64876;-57
2023/07/23 00:03:13;;;;;;;;;;;;;;;26.01;66.29;96965.00;615963;229;64783;-59
2023/07/23 00:05:44;;;;;;;;;;;;;;;26.00;66.23;96964.22;615777;229;65187;-58
2023/07/23 00:08:13;;;;;;;;;;;;;;;26.01;66.50;96970.39;615964;229;65792;-58
2023/07/23 00:10:41;;;;;;;;;;;;;;;25.99;66.46;96986.84;615974;229;64744;-58
2023/07/23 00:13:08;;;;;;;;;;;;;;;26.00;66.72;96985.77;614369;229;65662;-58
2023/07/23 00:15:36;;;;;;;;;;;;;;;25.99;66.68;96978.77;614231;231;65311;-61
2023/07/23 00:18:03;;;;;;;;;;;;;;;26.00;66.66;96969.60;614193;231;64535;-61
2023/07/23 00:20:31;;;;;;;;;;;;;;;25.99;66.64;96967.20;614163;231;65395;-61
2023/07/23 00:22:58;;;;;;;;;;;;;;;26.00;66.87;96968.78;614196;231;64989;-61
2023/07/23 00:25:26;;;;;;;;;;;;;;;26.00;67.23;96984.94;614203;231;64709;-61
2023/07/23 00:27:53;;;;;;;;;;;;;;;26.00;66.77;96995.71;618915;227;65136;-61
2023/07/23 00:30:21;;;;;;;;;;;;;;;25.99;66.50;97004.90;624903;227;64534;-61
2023/07/23 00:32:49;;;;;;;;;;;;;;;26.00;66.83;97019.95;624839;227;64688;-61
2023/07/23 00:35:16;;;;;;;;;;;;;;;25.99;67.02;97012.98;624882;227;65707;-62
2023/07/23 00:37:44;;;;;;;;;;;;;;;25.99;68.34;97008.38;624900;227;66090;-61
2023/07/23 00:40:12;;;;;;;;;;;;;;;25.99;67.17;96996.82;624967;227;62579;-62
2023/07/23 00:42:40;;;;;;;;;;;;;;;25.99;67.01;96994.12;624871;227;65649;-61
2023/07/23 00:45:08;;;;;;;;;;;;;;;25.99;67.04;97007.59;624886;227;65148;-61
2023/07/23 00:47:35;;;;;;;;;;;;;;;25.99;66.93;97008.38;624858;227;64760;-61
2023/07/23 00:50:03;;;;;;;;;;;;;;;25.99;66.30;96994.92;624932;227;65394;-61
2023/07/23 00:52:31;;;;;;;;;;;;;;;25.99;67.63;96984.15;624940;227;65776;-61
2023/07/23 00:54:59;;;;;;;;;;;;;;;25.99;68.21;96967.20;624875;227;62588;-62
2023/07/23 00:57:27;;;;;;;;;;;;;;;25.99;67.91;96967.20;624869;227;65670;-61
2023/07/23 01:00:00;;;;;;;;;;;;;;;25.99;69.87;96961.81;624888;227;65140;-61
2023/07/23 01:02:28;;;;;;;;;;;;;;;25.99;72.08;96953.73;624616;227;64768;-61
2023/07/23 01:04:56;;;;;;;;;;;;;;;25.97;70.39;96945.16;624870;227;65465;-61
2023/07/23 01:07:25;;;;;;;;;;;;;;;25.95;68.50;96944.70;624923;227;65208;-61
2023/07/23 01:09:53;;;;;;;;;;;;;;;25.95;67.81;96932.02;624895;227;64565;-61
2023/07/23 01:12:21;;;;;;;;;;;;;;;25.96;70.47;96935.50;624786;227;66341;-60
2023/07/23 01:14:49;;;;;;;;;;;;;;;25.95;69.71;96940.09;624954;227;62704;-62
2023/07/23 01:17:18;;;;;;;;;;;;;;;25.95;69.95;96940.09;624899;227;64759;-62
2023/07/23 01:19:46;;;;;;;;;;;;;;;25.96;71.47;96940.89;624950;227;66082;-62
2023/07/23 01:22:13;;;;;;;;;;;;;;;25.95;70.89;96944.70;624902;227;62961;-62
2023/07/23 01:24:41;;;;;;;;;;;;;;;25.94;70.39;96940.39;624872;227;64355;-62
2023/07/23 01:27:08;;;;;;;;;;;;;;;25.94;70.53;96943.08;624871;227;62723;-62
2023/07/23 01:29:36;;;;;;;;;;;;;;;25.94;70.64;96940.39;624918;227;65677;-62
2023/07/23 01:32:04;;;;;;;;;;;;;;;25.93;68.83;96941.50;624942;227;64583;-62
2023/07/23 01:34:31;;;;;;;;;;;;;;;25.93;68.69;96946.89;624930;227;62756;-62
2023/07/23 01:36:59;;;;;;;;;;;;;;;25.95;71.56;96934.71;624900;227;62984;-59
2023/07/23 01:39:26;;;;;;;;;;;;;;;25.94;70.62;96938.48;624877;225;62416;-59
2023/07/23 01:41:54;;;;;;;;;;;;;;;25.94;68.97;96945.77;624883;227;62708;-59
2023/07/23 01:44:22;;;;;;;;;;;;;;;25.95;68.62;97103.55;624866;227;63139;-59
2023/07/23 01:46:50;;;;;;;;;;;;;;;25.96;71.30;97092.46;624913;227;64795;-59
2023/07/23 01:49:17;;;;;;;;;;;;;;;25.95;72.04;97082.80;624869;227;66658;-59
2023/07/23 01:51:45;;;;;;;;;;;;;;;25.95;72.02;97125.09;624867;227;66064;-59
2023/07/23 01:54:12;;;;;;;;;;;;;;;25.93;71.40;97117.30;624876;227;62534;-59
2023/07/23 01:56:40;;;;;;;;;;;;;;;25.92;70.42;97145.34;624861;227;65178;-59
2023/07/23 01:59:08;;;;;;;;;;;;;;;25.92;70.83;97104.95;624932;227;65314;-59
2023/07/23 02:01:36;;;;;;;;;;;;;;;25.92;72.17;97129.19;624888;227;64601;-59
2023/07/23 02:04:04;;;;;;;;;;;;;;;25.91;72.24;97138.34;624888;227;65298;-59
2023/07/23 02:06:32;;;;;;;;;;;;;;;25.90;71.02;97134.86;617481;227;66181;-59
2023/07/23 02:08:59;;;;;;;;;;;;;;;25.90;70.55;97132.16;624893;227;64628;-59
2023/07/23 02:11:27;;;;;;;;;;;;;;;25.91;72.26;97144.52;624862;226;65392;-62
2023/07/23 02:13:54;;;;;;;;;;;;;;;25.90;71.83;97145.63;624882;227;66135;-62
2023/07/23 02:16:22;;;;;;;;;;;;;;;25.89;70.96;97151.30;624889;227;62680;-62
2023/07/23 02:18:50;;;;;;;;;;;;;;;25.87;70.70;97142.74;624879;227;65438;-59
2023/07/23 02:21:18;;;;;;;;;;;;;;;25.89;71.64;97145.91;624860;227;64976;-59
2023/07/23 02:23:45;;;;;;;;;;;;;;;25.88;70.85;97150.50;624940;227;62330;-59
2023/07/23 02:26:13;;;;;;;;;;;;;;;25.89;71.55;97162.06;624887;227;65435;-59
2023/07/23 02:28:43;;;;;;;;;;;;;;;25.88;70.31;97160.48;624941;227;66071;-59
2023/07/23 02:31:09;;;;;;;;;;;;;;;25.88;68.46;97149.71;624878;227;64682;-59
2023/07/23 02:33:37;;;;;;;;;;;;;;;25.90;71.13;97152.91;624879;227;65621;-59
2023/07/23 02:36:05;;;;;;;;;;;;;;;25.89;70.48;97149.42;624946;227;66410;-59
2023/07/23 02:38:32;;;;;;;;;;;;;;;25.90;70.36;97152.91;624903;227;64994;-59
2023/07/23 02:41:00;;;;;;;;;;;;;;;25.93;72.76;97138.05;624904;227;65291;-59
2023/07/23 02:43:27;;;;;;;;;;;;;;;25.91;71.46;97138.34;624908;227;66191;-59
2023/07/23 02:45:55;;;;;;;;;;;;;;;25.89;71.33;97129.75;624885;227;64683;-59
2023/07/23 02:48:23;;;;;;;;;;;;;;;25.89;72.05;97129.75;624888;227;63249;-59
2023/07/23 02:50:52;;;;;;;;;;;;;;;25.88;70.69;97126.27;624975;227;65885;-59
2023/07/23 02:53:20;;;;;;;;;;;;;;;25.87;71.19;97121.99;624675;227;64756;-59
2023/07/23 02:55:48;;;;;;;;;;;;;;;25.87;71.68;97111.23;624870;227;65830;-62
2023/07/23 02:58:15;;;;;;;;;;;;;;;25.88;71.27;97106.63;624914;227;65144;-62
2023/07/23 03:00:45;;;;;;;;;;;;;;;25.87;71.05;97105.05;624857;227;63464;-62
2023/07/23 03:03:12;;;;;;;;;;;;;;;25.88;71.06;97096.66;624681;227;65857;-62
2023/07/23 03:05:42;;;;;;;;;;;;;;;25.88;72.37;97093.96;624896;227;66077;-62
2023/07/23 03:08:10;;;;;;;;;;;;;;;25.85;70.99;97078.41;624911;227;64719;-62
2023/07/23 03:10:37;;;;;;;;;;;;;;;25.86;71.06;97080.03;624894;227;65473;-62
2023/07/23 03:13:05;;;;;;;;;;;;;;;25.88;71.54;97067.04;624650;226;62947;-62
2023/07/23 03:15:34;;;;;;;;;;;;;;;25.88;73.07;97068.94;624765;227;62433;-62
2023/07/23 03:18:02;;;;;;;;;;;;;;;25.85;71.95;97070.34;624736;227;65458;-62
2023/07/23 03:20:30;;;;;;;;;;;;;;;25.86;71.36;97069.27;624684;227;65231;-62
2023/07/23 03:22:58;;;;;;;;;;;;;;;25.87;72.34;97061.98;624693;225;62759;-62
2023/07/23 03:25:26;;;;;;;;;;;;;;;25.85;72.41;97058.78;624687;227;63071;-62
2023/07/23 03:27:56;;;;;;;;;;;;;;;25.85;72.35;97056.88;624702;227;63880;-62
2023/07/23 03:30:22;;;;;;;;;;;;;;;25.84;72.54;97057.98;624716;227;64941;-62
2023/07/23 03:32:50;;;;;;;;;;;;;;;25.84;71.23;97060.68;624706;227;65523;-62
2023/07/23 03:35:17;;;;;;;;;;;;;;;25.85;72.19;97061.47;624672;227;62874;-62
2023/07/23 03:37:45;;;;;;;;;;;;;;;25.84;71.06;97065.27;624691;227;62360;-62
2023/07/23 03:40:12;;;;;;;;;;;;;;;25.87;73.28;97072.74;618971;227;62810;-62
2023/07/23 03:42:40;;;;;;;;;;;;;;;25.85;72.55;97075.72;624753;227;65006;-62
2023/07/23 03:45:08;;;;;;;;;;;;;;;25.84;72.07;97071.45;624693;227;65352;-62
2023/07/23 03:47:36;;;;;;;;;;;;;;;25.84;72.46;97082.22;624656;227;65424;-62
2023/07/23 03:50:03;;;;;;;;;;;;;;;25.84;71.92;97074.14;624675;227;66585;-62
2023/07/23 03:52:31;;;;;;;;;;;;;;;25.85;72.70;97077.62;624699;227;62678;-62
2023/07/23 03:54:58;;;;;;;;;;;;;;;25.83;71.98;97077.91;624691;227;63014;-62
2023/07/23 03:57:26;;;;;;;;;;;;;;;25.83;72.38;97075.22;624690;227;62819;-62
2023/07/23 03:59:53;;;;;;;;;;;;;;;25.83;71.42;97077.91;624692;227;62615;-62
2023/07/23 04:02:21;;;;;;;;;;;;;;;25.83;72.22;97083.30;624700;227;63279;-62
2023/07/23 04:04:49;;;;;;;;;;;;;;;25.84;72.92;97074.14;624698;227;62834;-62
2023/07/23 04:07:16;;;;;;;;;;;;;;;25.85;72.86;97074.94;624716;227;62608;-62
2023/07/23 04:09:44;;;;;;;;;;;;;;;25.83;73.08;97075.22;624666;227;65779;-62
2023/07/23 04:12:11;;;;;;;;;;;;;;;25.82;72.77;97070.91;624729;226;65131;-62
2023/07/23 04:14:45;;;;;;;;;;;;;;;25.83;72.38;97071.70;624872;227;62408;-62
2023/07/23 04:17:13;;;;;;;;;;;;;;;25.83;72.31;97069.84;624891;227;63464;-61
2023/07/23 04:19:40;;;;;;;;;;;;;;;25.81;72.09;97069.33;624925;227;65358;-60
2023/07/23 04:22:08;;;;;;;;;;;;;;;25.80;72.50;97065.03;624878;227;64530;-60
2023/07/23 04:24:35;;;;;;;;;;;;;;;25.81;71.10;97057.74;624893;227;63803;-60
2023/07/23 04:27:03;;;;;;;;;;;;;;;25.81;71.71;97061.25;624883;227;65012;-60
2023/07/23 04:29:30;;;;;;;;;;;;;;;25.81;71.04;97074.72;624890;227;64709;-60
2023/07/23 04:31:58;;;;;;;;;;;;;;;25.82;72.76;97065.53;624959;227;62895;-60
2023/07/23 04:34:25;;;;;;;;;;;;;;;25.81;71.91;97055.88;624909;227;65027;-60
2023/07/23 04:36:54;;;;;;;;;;;;;;;25.81;71.84;97057.74;624879;227;65076;-62
2023/07/23 04:39:22;;;;;;;;;;;;;;;25.80;70.55;97062.33;624862;227;65386;-61
2023/07/23 04:41:49;;;;;;;;;;;;;;;25.81;71.42;97055.88;624896;227;62926;-61
2023/07/23 04:44:16;;;;;;;;;;;;;;;25.82;71.74;97051.28;624883;227;62624;-61
2023/07/23 04:46:44;;;;;;;;;;;;;;;25.81;72.37;97045.10;624906;227;63238;-62
2023/07/23 04:49:11;;;;;;;;;;;;;;;25.82;72.36;97037.81;624886;224;63067;-61
2023/07/23 04:51:39;;;;;;;;;;;;;;;25.80;71.13;97035.41;624877;227;62558;-61
2023/07/23 04:54:06;;;;;;;;;;;;;;;25.82;72.37;97045.89;624873;227;63879;-61
2023/07/23 04:56:34;;;;;;;;;;;;;;;25.80;71.92;97038.11;624928;227;62837;-61
2023/07/23 04:59:01;;;;;;;;;;;;;;;25.80;71.07;97046.19;624929;227;64775;-61
2023/07/23 05:01:29;;;;;;;;;;;;;;;25.80;70.96;97040.80;624867;227;65407;-61
2023/07/23 05:03:56;;;;;;;;;;;;;;;25.81;72.45;97046.97;624862;227;63510;-61
2023/07/23 05:06:24;;;;;;;;;;;;;;;25.81;72.54;97050.48;624919;227;64733;-61
2023/07/23 05:08:52;;;;;;;;;;;;;;;25.79;70.29;97047.30;624911;227;65523;-61
2023/07/23 05:11:19;;;;;;;;;;;;;;;25.81;70.09;97049.67;624863;226;62723;-61
2023/07/23 05:13:47;;;;;;;;;;;;;;;25.81;70.30;97050.48;624923;227;62625;-61
2023/07/23 05:16:14;;;;;;;;;;;;;;;25.82;68.77;97051.28;624887;227;63161;-61
2023/07/23 05:18:42;;;;;;;;;;;;;;;25.82;68.21;97054.77;624949;227;63622;-61
2023/07/23 05:21:09;;;;;;;;;;;;;;;25.83;67.55;97055.55;624926;227;64733;-61
2023/07/23 05:23:37;;;;;;;;;;;;;;;25.82;67.70;97052.07;624933;227;64816;-61
2023/07/23 05:26:04;;;;;;;;;;;;;;;25.84;68.17;97052.60;624886;227;62672;-61
2023/07/23 05:28:32;;;;;;;;;;;;;;;25.84;67.40;97051.81;624867;227;63559;-61
2023/07/23 05:31:00;;;;;;;;;;;;;;;25.83;67.55;97056.38;624888;227;65453;-61
2023/07/23 05:33:27;;;;;;;;;;;;;;;25.84;67.50;97060.68;624893;227;62804;-61
2023/07/23 05:35:55;;;;;;;;;;;;;;;25.85;67.55;97056.09;624945;227;64734;-61
2023/07/23 05:38:22;;;;;;;;;;;;;;;25.85;67.59;97059.57;624896;227;65105;-61
2023/07/23 05:40:57;;;;;;;;;;;;;;;25.86;67.46;97058.49;624914;227;63041;-61
2023/07/23 05:43:25;;;;;;;;;;;;;;;25.85;67.40;97053.39;624671;227;64743;-61
2023/07/23 05:45:53;;;;;;;;;;;;;;;25.85;67.35;97062.27;624874;227;65366;-60
2023/07/23 05:48:20;;;;;;;;;;;;;;;25.87;67.51;97056.59;624877;227;65131;-62
2023/07/23 05:50:47;;;;;;;;;;;;;;;25.87;67.64;97060.07;624910;227;64717;-61
2023/07/23 05:53:15;;;;;;;;;;;;;;;25.87;67.52;97054.69;624855;227;65397;-62
2023/07/23 05:55:43;;;;;;;;;;;;;;;25.86;67.54;97053.11;624834;227;63207;-63
2023/07/23 05:58:10;;;;;;;;;;;;;;;25.87;67.64;97061.98;624874;227;62703;-64
2023/07/23 06:00:38;;;;;;;;;;;;;;;25.87;67.73;97054.69;624873;227;63148;-62
2023/07/23 06:03:07;;;;;;;;;;;;;;;25.87;67.55;97061.98;624870;227;65014;-60
2023/07/23 06:05:37;;;;;;;;;;;;;;;25.87;67.79;97053.89;624867;227;64836;-61
2023/07/23 06:08:04;;;;;;;;;;;;;;;25.87;67.56;97056.59;624897;224;65438;-59
2023/07/23 06:10:32;;;;;;;;;;;;;;;25.87;67.32;97056.59;624864;227;64941;-59
2023/07/23 06:12:59;;;;;;;;;;;;;;;25.88;67.26;97055.48;624709;226;64715;-58
2023/07/23 06:15:27;;;;;;;;;;;;;;;25.88;67.33;97053.58;624718;227;65359;-58
2023/07/23 06:17:54;;;;;;;;;;;;;;;25.88;67.48;97058.17;624642;227;65483;-58
2023/07/23 06:20:22;;;;;;;;;;;;;;;25.88;67.78;97058.17;624683;227;64682;-58
2023/07/23 06:22:49;;;;;;;;;;;;;;;25.89;67.68;97062.45;624636;227;63321;-59
2023/07/23 06:25:17;;;;;;;;;;;;;;;25.89;68.13;97060.58;624687;227;65154;-59
2023/07/23 06:27:44;;;;;;;;;;;;;;;25.89;67.38;97060.58;624695;227;64804;-59
2023/07/23 06:30:12;;;;;;;;;;;;;;;25.91;67.38;97060.26;624653;226;65411;-58
2023/07/23 06:32:40;;;;;;;;;;;;;;;25.91;66.92;97055.66;624659;227;62880;-59
2023/07/23 06:35:10;;;;;;;;;;;;;;;25.92;66.85;97053.80;624687;227;64745;-59
2023/07/23 06:37:36;;;;;;;;;;;;;;;25.93;65.91;97062.66;624602;227;62800;-59
2023/07/23 06:40:04;;;;;;;;;;;;;;;25.95;65.69;97065.86;624736;227;62902;-59
2023/07/23 06:42:32;;;;;;;;;;;;;;;25.94;66.37;97065.03;624604;227;64725;-59
2023/07/23 06:44:59;;;;;;;;;;;;;;;25.95;66.10;97073.94;624687;227;65608;-59
2023/07/23 06:47:27;;;;;;;;;;;;;;;25.94;65.79;97069.63;624659;227;65139;-59
2023/07/23 06:49:54;;;;;;;;;;;;;;;25.95;65.08;97079.32;624612;227;64728;-60
2023/07/23 06:52:22;;;;;;;;;;;;;;;25.96;64.96;97076.31;624721;227;62897;-59
2023/07/23 06:54:49;;;;;;;;;;;;;;;25.96;64.87;97079.00;624656;227;65143;-58
2023/07/23 06:57:17;;;;;;;;;;;;;;;25.98;64.70;97078.71;624646;227;62565;-58
2023/07/23 06:59:46;;;;;;;;;;;;;;;25.98;64.39;97082.20;624695;227;64102;-58
2023/07/23 07:02:13;;;;;;;;;;;;;;;25.98;64.31;97084.09;624631;227;63135;-59
2023/07/23 07:04:41;;;;;;;;;;;;;;;25.99;64.12;97091.86;624705;227;62593;-59
2023/07/23 07:07:08;;;;;;;;;;;;;;;25.99;63.17;97089.16;624651;227;64040;-59
2023/07/23 07:09:36;;;;;;;;;;;;;;;25.98;62.92;97084.89;624668;227;65142;-59
2023/07/23 07:12:04;;;;;;;;;;;;;;;25.99;62.62;97096.45;624745;226;64580;-58
2023/07/23 07:14:31;;;;;;;;;;;;;;;26.00;61.88;97098.86;624914;227;65596;-58
2023/07/23 07:16:59;;;;;;;;;;;;;;;26.01;62.07;97102.34;624858;227;63054;-58
2023/07/23 07:19:26;;;;;;;;;;;;;;;26.01;62.03;97097.75;624951;227;64736;-58
2023/07/23 07:21:54;;;;;;;;;;;;;;;26.01;61.79;97105.83;624918;227;65315;-58
2023/07/23 07:24:21;;;;;;;;;;;;;;;26.02;62.18;97106.62;624916;227;64980;-58
2023/07/23 07:26:49;;;;;;;;;;;;;;;26.02;61.47;97102.02;624900;227;64704;-58
2023/07/23 07:29:16;;;;;;;;;;;;;;;26.03;61.31;97105.53;624899;227;63417;-58
2023/07/23 07:31:45;;;;;;;;;;;;;;;26.03;61.23;97106.33;624912;227;65721;-59
2023/07/23 07:34:12;;;;;;;;;;;;;;;26.02;61.61;97107.41;624884;227;64552;-58
2023/07/23 07:36:40;;;;;;;;;;;;;;;26.04;61.41;97126.77;624907;227;63299;-58
2023/07/23 07:39:08;;;;;;;;;;;;;;;26.03;60.29;97119.80;624888;227;65198;-58
2023/07/23 07:41:35;;;;;;;;;;;;;;;26.03;60.88;97122.48;624889;227;64791;-59
2023/07/23 07:44:02;;;;;;;;;;;;;;;26.05;61.13;97127.55;624893;227;65437;-58
2023/07/23 07:46:30;;;;;;;;;;;;;;;26.05;60.88;97127.55;624909;227;65161;-58
2023/07/23 07:48:57;;;;;;;;;;;;;;;26.04;60.45;97121.38;624896;227;64707;-59
2023/07/23 07:51:25;;;;;;;;;;;;;;;26.04;60.72;97126.77;624911;227;62914;-58
2023/07/23 07:53:52;;;;;;;;;;;;;;;26.04;61.08;97131.36;624916;227;65024;-58
2023/07/23 07:56:20;;;;;;;;;;;;;;;26.05;61.00;97127.55;624922;227;64723;-58
2023/07/23 07:58:48;;;;;;;;;;;;;;;26.04;60.81;97125.97;624879;227;65863;-58
2023/07/23 08:01:15;;;;;;;;;;;;;;;26.05;60.52;97130.25;624906;227;65177;-58
2023/07/23 08:03:43;;;;;;;;;;;;;;;26.05;60.79;97125.66;624877;227;64734;-59
2023/07/23 08:06:11;;;;;;;;;;;;;;;26.06;60.40;97126.47;624882;227;65407;-58
2023/07/23 08:08:41;;;;;;;;;;;;;;;26.05;60.56;97122.17;624917;227;63168;-58
2023/07/23 08:11:08;;;;;;;;;;;;;;;26.04;60.88;97129.45;624798;227;62729;-58
2023/07/23 08:13:40;;;;;;;;;;;;;;;26.05;61.36;97127.55;624919;227;65840;-58
2023/07/23 08:16:08;;;;;;;;;;;;;;;26.04;60.93;97126.77;624904;227;65251;-57
2023/07/23 08:18:36;;;;;;;;;;;;;;;26.06;60.35;97137.25;624898;227;64696;-57
2023/07/23 08:21:04;;;;;;;;;;;;;;;26.05;61.12;97143.71;624846;227;65732;-58
2023/07/23 08:23:32;;;;;;;;;;;;;;;26.05;60.58;97143.71;624914;227;65184;-57
2023/07/23 08:26:02;;;;;;;;;;;;;;;26.06;60.41;97138.04;624873;227;64703;-57
2023/07/23 08:28:30;;;;;;;;;;;;;;;26.06;60.36;97134.55;624873;227;65455;-60
2023/07/23 08:31:00;;;;;;;;;;;;;;;26.06;60.92;97137.25;624875;227;65191;-57
2023/07/23 08:33:28;;;;;;;;;;;;;;;26.05;60.73;97143.71;624871;227;62683;-58
2023/07/23 08:35:56;;;;;;;;;;;;;;;26.06;61.11;97139.94;624927;227;63018;-57
2023/07/23 08:38:24;;;;;;;;;;;;;;;26.06;61.19;97137.25;624867;227;64945;-58
2023/07/23 08:40:54;;;;;;;;;;;;;;;26.06;60.95;97143.42;624885;227;62656;-58
2023/07/23 08:43:22;;;;;;;;;;;;;;;26.07;61.03;97141.52;623972;227;64084;-58
2023/07/23 08:45:54;;;;;;;;;;;;;;;26.06;60.84;97132.66;624266;227;65735;-58
2023/07/23 08:48:22;;;;;;;;;;;;;;;26.07;60.91;97142.31;624418;227;64826;-58
2023/07/23 08:50:50;;;;;;;;;;;;;;;26.05;60.69;97133.73;624883;227;65473;-58
2023/07/23 08:53:18;;;;;;;;;;;;;;;26.07;60.50;97142.31;624902;227;65226;-58
2023/07/23 08:55:47;;;;;;;;;;;;;;;26.08;60.25;97153.88;624870;227;64711;-58
2023/07/23 08:58:16;;;;;;;;;;;;;;;26.08;60.09;97141.23;624887;227;65601;-58
2023/07/23 09:00:44;;;;;;;;;;;;;;;26.08;60.36;97143.93;624624;227;65012;-58
2023/07/23 09:03:12;;;;;;;;;;;;;;;26.08;60.26;97135.85;624929;227;62705;-58
2023/07/23 09:05:40;;;;;;;;;;;;;;;26.09;60.29;97142.03;624888;227;65102;-58
2023/07/23 09:08:08;;;;;;;;;;;;;;;26.09;60.33;97152.80;624917;227;63336;-58
2023/07/23 09:10:35;;;;;;;;;;;;;;;26.09;60.56;97152.80;624817;227;62660;-58
2023/07/23 09:13:10;;;;;;;;;;;;;;;26.08;60.77;97145.80;624869;227;63450;-58
2023/07/23 09:15:38;;;;;;;;;;;;;;;26.09;60.65;97150.11;624898;227;63170;-58
2023/07/23 09:18:05;;;;;;;;;;;;;;;26.08;60.78;97149.31;624886;227;62599;-58
2023/07/23 09:20:33;;;;;;;;;;;;;;;26.10;60.71;97149.00;624887;227;63221;-58
2023/07/23 09:23:02;;;;;;;;;;;;;;;26.09;60.85;97136.64;624895;227;65165;-58
2023/07/23 09:25:32;;;;;;;;;;;;;;;26.09;60.61;97145.52;624831;227;64700;-58
2023/07/23 09:27:59;;;;;;;;;;;;;;;26.10;60.83;97149.79;624916;227;65058;-58
2023/07/23 09:30:27;;;;;;;;;;;;;;;26.10;60.76;97151.69;624926;227;64924;-58
2023/07/23 09:32:57;;;;;;;;;;;;;;;26.10;61.14;97143.61;624885;227;62614;-58
2023/07/23 09:35:25;;;;;;;;;;;;;;;26.09;60.76;97150.11;624547;227;65117;-57
2023/07/23 09:37:59;;;;;;;;;;;;;;;26.12;60.65;97138.73;624909;227;62633;-58
2023/07/23 09:40:36;;;;;;;;;;;;;;;26.12;60.07;97139.52;624879;227;64825;-58
2023/07/23 09:43:04;;;;;;;;;;;;;;;26.12;60.11;97142.21;624927;227;62998;-58
2023/07/23 09:45:33;;;;;;;;;;;;;;;26.12;59.82;97136.03;624915;227;62848;-58
2023/07/23 09:48:01;;;;;;;;;;;;;;;26.12;59.90;97144.91;624894;227;64698;-58
2023/07/23 09:50:30;;;;;;;;;;;;;;;26.12;59.85;97147.59;624865;227;62724;-58
2023/07/23 09:52:57;;;;;;;;;;;;;;;26.11;59.83;97135.24;624901;227;62867;-58
2023/07/23 09:55:25;;;;;;;;;;;;;;;26.12;59.53;97146.81;624838;227;62640;-58
2023/07/23 09:57:53;;;;;;;;;;;;;;;26.12;59.37;97144.12;624921;227;65200;-58
2023/07/23 10:00:21;;;;;;;;;;;;;;;26.12;59.78;97144.12;624848;227;65486;-58
2023/07/23 10:02:49;;;;;;;;;;;;;;;26.11;59.64;97147.92;624877;227;62362;-58
2023/07/23 10:05:18;;;;;;;;;;;;;;;26.10;59.96;97146.30;624883;227;63274;-58
2023/07/23 10:07:47;;;;;;;;;;;;;;;26.10;59.97;97141.70;624846;227;65090;-58
2023/07/23 10:10:15;;;;;;;;;;;;;;;26.12;59.47;97144.12;624923;227;64791;-58
2023/07/23 10:12:43;;;;;;;;;;;;;;;26.12;59.35;97149.50;624831;227;65254;-58
2023/07/23 10:15:10;;;;;;;;;;;;;;;26.13;59.47;97156.47;624870;227;63199;-58
2023/07/23 10:17:40;;;;;;;;;;;;;;;26.12;59.54;97155.68;624896;227;62426;-58
2023/07/23 10:20:09;;;;;;;;;;;;;;;26.12;58.73;97154.89;624468;227;63077;-58
2023/07/23 10:22:38;;;;;;;;;;;;;;;26.13;58.54;97151.09;624906;227;65182;-58
2023/07/23 10:25:24;;;;;;;;;;;;;;;26.13;58.59;97157.27;624852;227;62692;-58
2023/07/23 10:27:56;;;;;;;;;;;;;;;26.13;58.91;97159.16;624865;227;63389;-58
2023/07/23 10:30:25;;;;;;;;;;;;;;;26.12;58.89;97160.27;623082;227;62946;-58
2023/07/23 10:33:12;;;;;;;;;;;;;;;26.12;58.89;97152.98;624854;227;64708;-58
2023/07/23 10:35:58;;;;;;;;;;;;;;;26.11;58.67;97162.17;624872;227;63293;-58
2023/07/23 10:38:27;;;;;;;;;;;;;;;26.12;58.89;97152.98;624886;227;65428;-58
2023/07/23 10:40:55;;;;;;;;;;;;;;;26.12;58.97;97157.58;624915;227;62700;-58
2023/07/23 10:43:23;;;;;;;;;;;;;;;26.12;58.56;97152.20;624878;227;63233;-58
2023/07/23 10:46:04;;;;;;;;;;;;;;;26.12;58.52;97149.50;624892;227;63163;-58
2023/07/23 10:48:42;;;;;;;;;;;;;;;26.12;58.40;97144.12;624897;227;64650;-58
2023/07/23 10:51:14;;;;;;;;;;;;;;;26.13;58.51;97151.88;624852;227;65428;-58
2023/07/23 10:53:43;;;;;;;;;;;;;;;26.13;58.56;97153.78;624899;227;65273;-58
2023/07/23 10:56:21;;;;;;;;;;;;;;;26.13;58.15;97156.47;624935;227;64875;-58
2023/07/23 10:58:49;;;;;;;;;;;;;;;26.14;57.91;97155.39;624634;227;65384;-58
2023/07/23 11:01:21;;;;;;;;;;;;;;;26.13;57.47;97157.27;624891;227;65227;-58
2023/07/23 11:03:49;;;;;;;;;;;;;;;26.13;57.44;97146.48;624521;227;62593;-58
2023/07/23 11:06:27;;;;;;;;;;;;;;;26.13;57.28;97151.09;624882;227;65138;-58
2023/07/23 11:08:57;;;;;;;;;;;;;;;26.13;57.31;97145.70;624602;227;64925;-58
2023/07/23 11:11:29;;;;;;;;;;;;;;;26.13;57.41;97148.39;624871;226;62691;-58
2023/07/23 11:13:57;;;;;;;;;;;;;;;26.13;56.89;97151.09;624949;227;65523;-58
2023/07/23 11:16:24;;;;;;;;;;;;;;;26.15;57.00;97153.48;624849;227;63463;-58
2023/07/23 11:18:52;;;;;;;;;;;;;;;26.14;57.45;97147.31;624886;227;63470;-58
2023/07/23 11:21:20;;;;;;;;;;;;;;;26.13;58.11;97141.11;624902;227;65414;-58
2023/07/23 11:23:48;;;;;;;;;;;;;;;26.13;57.51;97143.00;624927;227;63965;-58
2023/07/23 11:26:17;;;;;;;;;;;;;;;26.15;58.08;97145.41;624935;227;64615;-58
2023/07/23 11:28:45;;;;;;;;;;;;;;;26.15;57.92;97140.81;624908;227;65383;-61
2023/07/23 11:31:12;;;;;;;;;;;;;;;26.14;57.64;97141.92;624867;227;65180;-61
2023/07/23 11:33:40;;;;;;;;;;;;;;;26.15;57.12;97131.95;624919;227;64677;-61
2023/07/23 11:36:09;;;;;;;;;;;;;;;26.15;57.12;97140.02;624905;227;65058;-61
2023/07/23 11:38:36;;;;;;;;;;;;;;;26.14;56.66;97141.92;624959;227;65217;-61
2023/07/23 11:41:04;;;;;;;;;;;;;;;26.15;56.76;97138.13;624882;227;64784;-61
2023/07/23 11:43:33;;;;;;;;;;;;;;;26.15;56.44;97145.41;624896;227;65849;-61
2023/07/23 11:46:01;;;;;;;;;;;;;;;26.15;56.08;97143.51;624891;227;63180;-61
2023/07/23 11:48:29;;;;;;;;;;;;;;;26.16;55.56;97150.48;624899;227;62417;-61
2023/07/23 11:50:56;;;;;;;;;;;;;;;26.16;55.85;97144.30;624936;227;63253;-61
2023/07/23 11:53:34;;;;;;;;;;;;;;;26.15;55.53;97138.13;624902;227;63065;-61
2023/07/23 11:56:16;;;;;;;;;;;;;;;26.15;55.72;97143.51;624866;227;62763;-61
2023/07/23 11:58:41;;;;;;;;;;;;;;;26.15;56.84;97148.90;624642;227;63210;-61
2023/07/23 12:01:09;;;;;;;;;;;;;;;26.15;56.20;97154.28;624848;227;65359;-62
2023/07/23 12:03:41;;;;;;;;;;;;;;;26.15;56.35;97151.59;624935;227;64720;-61
2023/07/23 12:06:09;;;;;;;;;;;;;;;26.16;56.32;97152.38;624892;227;65400;-61
2023/07/23 12:08:43;;;;;;;;;;;;;;;26.16;56.40;97145.09;624882;227;65225;-62
2023/07/23 12:11:09;;;;;;;;;;;;;;;26.16;56.46;97146.99;624411;226;64589;-61
2023/07/23 12:13:38;;;;;;;;;;;;;;;26.16;56.38;97139.70;624702;227;65374;-61
2023/07/23 12:16:07;;;;;;;;;;;;;;;26.16;56.41;97142.40;624603;227;64994;-61
2023/07/23 12:18:35;;;;;;;;;;;;;;;26.16;56.31;97131.62;624570;227;62474;-61
2023/07/23 12:21:03;;;;;;;;;;;;;;;26.16;56.60;97134.32;624673;227;65380;-61
2023/07/23 12:23:30;;;;;;;;;;;;;;;26.16;56.72;97144.30;624702;227;64957;-61
2023/07/23 12:25:58;;;;;;;;;;;;;;;26.16;56.55;97139.70;624671;227;64725;-61
2023/07/23 12:28:27;;;;;;;;;;;;;;;26.17;56.48;97143.22;624683;227;64105;-61
2023/07/23 12:30:54;;;;;;;;;;;;;;;26.17;56.39;97144.02;624699;227;65583;-61
2023/07/23 12:33:22;;;;;;;;;;;;;;;26.17;55.72;97140.53;624683;227;62708;-61
2023/07/23 12:35:50;;;;;;;;;;;;;;;26.17;55.94;97149.41;624682;227;63277;-61
2023/07/23 12:38:20;;;;;;;;;;;;;;;26.17;55.88;97146.70;624698;227;65236;-61
2023/07/23 12:40:47;;;;;;;;;;;;;;;26.18;55.52;97144.80;624678;227;64751;-61
2023/07/23 12:43:14;;;;;;;;;;;;;;;26.18;56.45;97136.72;624730;227;65299;-60
2023/07/23 12:45:42;;;;;;;;;;;;;;;26.16;57.01;97134.32;624688;227;65273;-60
2023/07/23 12:48:09;;;;;;;;;;;;;;;26.16;56.14;97126.23;624693;227;64847;-60
2023/07/23 12:50:37;;;;;;;;;;;;;;;26.17;55.77;97130.55;624683;227;63848;-61
2023/07/23 12:53:04;;;;;;;;;;;;;;;26.17;55.68;97122.47;624691;227;65116;-60